sensor_id;sensor_type;location;lat;lon;timestamp;P1;durP1;ratioP1;P2;durP2;ratioP2
37339;SDS011;23223;51.006;7.610;2022-07-22T00:00:54;12.43;;;11.13;;
37339;SDS011;23223;51.006;7.610;2022-07-22T00:03:19;12.27;;;9.88;;
37339;SDS011;23223;51.006;7.610;2022-07-22T00:05:45;10.20;;;9.25;;
37339;SDS011;23223;51.006;7.610;2022-07-22T00:08:11;13.30;;;11.18;;
37339;SDS011;23223;51.006;7.610;2022-07-22T00:10:36;7.65;;;6.90;;
37339;SDS011;23223;51.006;7.610;2022-07-22T00:13:02;9.27;;;8.35;;
37339;SDS011;23223;51.006;7.610;2022-07-22T00:15:28;7.93;;;7.18;;
37339;SDS011;23223;51.006;7.610;2022-07-22T00:17:53;7.63;;;6.72;;
37339;SDS011;23223;51.006;7.610;2022-07-22T00:20:19;7.25;;;6.57;;
37339;SDS011;23223;51.006;7.610;2022-07-22T00:22:45;5.72;;;5.10;;
37339;SDS011;23223;51.006;7.610;2022-07-22T00:25:11;10.95;;;9.55;;
37339;SDS011;23223;51.006;7.610;2022-07-22T00:27:36;5.53;;;4.72;;
37339;SDS011;23223;51.006;7.610;2022-07-22T00:30:02;11.23;;;9.80;;
37339;SDS011;23223;51.006;7.610;2022-07-22T00:32:29;12.48;;;8.73;;
37339;SDS011;23223;51.006;7.610;2022-07-22T00:34:54;8.73;;;7.53;;
37339;SDS011;23223;51.006;7.610;2022-07-22T00:37:20;9.43;;;6.97;;
37339;SDS011;23223;51.006;7.610;2022-07-22T00:39:45;5.15;;;4.65;;
37339;SDS011;23223;51.006;7.610;2022-07-22T00:42:13;5.15;;;4.65;;
37339;SDS011;23223;51.006;7.610;2022-07-22T00:44:38;8.13;;;7.25;;
37339;SDS011;23223;51.006;7.610;2022-07-22T00:47:04;4.25;;;3.85;;
37339;SDS011;23223;51.006;7.610;2022-07-22T00:49:30;8.93;;;7.43;;
37339;SDS011;23223;51.006;7.610;2022-07-22T00:51:56;9.18;;;7.97;;
37339;SDS011;23223;51.006;7.610;2022-07-22T00:54:22;6.75;;;5.07;;
37339;SDS011;23223;51.006;7.610;2022-07-22T00:56:48;12.40;;;8.00;;
37339;SDS011;23223;51.006;7.610;2022-07-22T00:59:13;9.13;;;5.20;;
37339;SDS011;23223;51.006;7.610;2022-07-22T01:01:39;6.22;;;4.72;;
37339;SDS011;23223;51.006;7.610;2022-07-22T01:04:05;9.63;;;7.95;;
37339;SDS011;23223;51.006;7.610;2022-07-22T01:06:31;8.95;;;6.78;;
37339;SDS011;23223;51.006;7.610;2022-07-22T01:08:57;6.68;;;5.15;;
37339;SDS011;23223;51.006;7.610;2022-07-22T01:11:23;8.95;;;6.40;;
37339;SDS011;23223;51.006;7.610;2022-07-22T01:13:49;9.68;;;8.55;;
37339;SDS011;23223;51.006;7.610;2022-07-22T01:16:16;8.43;;;6.82;;
37339;SDS011;23223;51.006;7.610;2022-07-22T01:18:42;9.93;;;8.38;;
37339;SDS011;23223;51.006;7.610;2022-07-22T01:21:09;12.02;;;8.27;;
37339;SDS011;23223;51.006;7.610;2022-07-22T01:23:35;8.50;;;7.63;;
37339;SDS011;23223;51.006;7.610;2022-07-22T01:26:01;8.02;;;6.70;;
37339;SDS011;23223;51.006;7.610;2022-07-22T01:28:28;11.45;;;10.15;;
37339;SDS011;23223;51.006;7.610;2022-07-22T01:30:54;8.23;;;7.40;;
37339;SDS011;23223;51.006;7.610;2022-07-22T01:33:20;10.82;;;7.90;;
37339;SDS011;23223;51.006;7.610;2022-07-22T01:35:46;11.75;;;10.55;;
37339;SDS011;23223;51.006;7.610;2022-07-22T01:38:13;6.28;;;5.32;;
37339;SDS011;23223;51.006;7.610;2022-07-22T01:40:40;8.90;;;6.05;;
37339;SDS011;23223;51.006;7.610;2022-07-22T01:43:07;10.82;;;9.00;;
37339;SDS011;23223;51.006;7.610;2022-07-22T01:45:33;10.10;;;8.18;;
37339;SDS011;23223;51.006;7.610;2022-07-22T01:47:59;11.75;;;10.55;;
37339;SDS011;23223;51.006;7.610;2022-07-22T01:50:25;5.85;;;5.25;;
37339;SDS011;23223;51.006;7.610;2022-07-22T01:52:51;7.53;;;5.97;;
37339;SDS011;23223;51.006;7.610;2022-07-22T01:55:17;5.28;;;4.53;;
37339;SDS011;23223;51.006;7.610;2022-07-22T01:57:43;8.90;;;6.38;;
37339;SDS011;23223;51.006;7.610;2022-07-22T02:00:09;7.63;;;5.93;;
37339;SDS011;23223;51.006;7.610;2022-07-22T02:02:36;9.00;;;7.13;;
37339;SDS011;23223;51.006;7.610;2022-07-22T02:05:02;6.68;;;5.97;;
37339;SDS011;23223;51.006;7.610;2022-07-22T02:07:29;7.10;;;4.70;;
37339;SDS011;23223;51.006;7.610;2022-07-22T02:09:55;8.25;;;5.35;;
37339;SDS011;23223;51.006;7.610;2022-07-22T02:12:20;5.03;;;4.53;;
37339;SDS011;23223;51.006;7.610;2022-07-22T02:14:46;8.73;;;5.68;;
37339;SDS011;23223;51.006;7.610;2022-07-22T02:17:12;4.00;;;3.65;;
37339;SDS011;23223;51.006;7.610;2022-07-22T02:19:38;7.47;;;5.65;;
37339;SDS011;23223;51.006;7.610;2022-07-22T02:22:05;8.77;;;6.85;;
37339;SDS011;23223;51.006;7.610;2022-07-22T02:24:31;4.18;;;3.17;;
37339;SDS011;23223;51.006;7.610;2022-07-22T02:26:56;7.03;;;5.88;;
37339;SDS011;23223;51.006;7.610;2022-07-22T02:29:22;5.60;;;4.13;;
37339;SDS011;23223;51.006;7.610;2022-07-22T02:31:47;8.02;;;4.13;;
37339;SDS011;23223;51.006;7.610;2022-07-22T02:34:13;7.30;;;5.03;;
37339;SDS011;23223;51.006;7.610;2022-07-22T02:36:39;10.77;;;6.57;;
37339;SDS011;23223;51.006;7.610;2022-07-22T02:39:05;9.00;;;5.88;;
37339;SDS011;23223;51.006;7.610;2022-07-22T02:41:30;7.72;;;6.43;;
37339;SDS011;23223;51.006;7.610;2022-07-22T02:43:56;5.75;;;4.72;;
37339;SDS011;23223;51.006;7.610;2022-07-22T02:46:22;10.45;;;6.93;;
37339;SDS011;23223;51.006;7.610;2022-07-22T02:48:48;6.00;;;5.45;;
37339;SDS011;23223;51.006;7.610;2022-07-22T02:51:14;6.93;;;6.32;;
37339;SDS011;23223;51.006;7.610;2022-07-22T02:53:39;10.18;;;6.75;;
37339;SDS011;23223;51.006;7.610;2022-07-22T02:56:05;4.57;;;4.13;;
37339;SDS011;23223;51.006;7.610;2022-07-22T02:58:31;8.45;;;6.47;;
37339;SDS011;23223;51.006;7.610;2022-07-22T03:00:56;11.75;;;6.53;;
37339;SDS011;23223;51.006;7.610;2022-07-22T03:03:22;4.60;;;4.15;;
37339;SDS011;23223;51.006;7.610;2022-07-22T03:05:48;8.25;;;7.40;;
37339;SDS011;23223;51.006;7.610;2022-07-22T03:08:14;10.20;;;5.60;;
37339;SDS011;23223;51.006;7.610;2022-07-22T03:10:40;7.13;;;5.47;;
37339;SDS011;23223;51.006;7.610;2022-07-22T03:13:05;9.00;;;6.80;;
37339;SDS011;23223;51.006;7.610;2022-07-22T03:15:31;7.05;;;4.13;;
37339;SDS011;23223;51.006;7.610;2022-07-22T03:17:56;5.63;;;4.82;;
37339;SDS011;23223;51.006;7.610;2022-07-22T03:20:22;6.65;;;5.05;;
37339;SDS011;23223;51.006;7.610;2022-07-22T03:22:47;9.20;;;7.03;;
37339;SDS011;23223;51.006;7.610;2022-07-22T03:25:13;10.90;;;6.82;;
37339;SDS011;23223;51.006;7.610;2022-07-22T03:27:38;13.25;;;6.85;;
37339;SDS011;23223;51.006;7.610;2022-07-22T03:30:04;10.25;;;5.07;;
37339;SDS011;23223;51.006;7.610;2022-07-22T03:32:31;9.18;;;7.20;;
37339;SDS011;23223;51.006;7.610;2022-07-22T03:34:57;8.45;;;6.93;;
37339;SDS011;23223;51.006;7.610;2022-07-22T03:37:22;10.40;;;6.70;;
37339;SDS011;23223;51.006;7.610;2022-07-22T03:39:48;10.70;;;6.20;;
37339;SDS011;23223;51.006;7.610;2022-07-22T03:42:13;12.13;;;7.47;;
37339;SDS011;23223;51.006;7.610;2022-07-22T03:44:39;9.07;;;7.25;;
37339;SDS011;23223;51.006;7.610;2022-07-22T03:47:04;9.43;;;7.20;;
37339;SDS011;23223;51.006;7.610;2022-07-22T03:49:30;9.57;;;6.85;;
37339;SDS011;23223;51.006;7.610;2022-07-22T03:51:56;8.32;;;7.13;;
37339;SDS011;23223;51.006;7.610;2022-07-22T03:54:22;7.97;;;4.93;;
37339;SDS011;23223;51.006;7.610;2022-07-22T03:56:48;6.78;;;5.78;;
37339;SDS011;23223;51.006;7.610;2022-07-22T03:59:14;3.45;;;3.15;;
37339;SDS011;23223;51.006;7.610;2022-07-22T04:01:40;5.57;;;4.75;;
37339;SDS011;23223;51.006;7.610;2022-07-22T04:04:06;10.93;;;7.53;;
37339;SDS011;23223;51.006;7.610;2022-07-22T04:06:31;11.55;;;8.05;;
37339;SDS011;23223;51.006;7.610;2022-07-22T04:08:57;7.90;;;7.10;;
37339;SDS011;23223;51.006;7.610;2022-07-22T04:11:23;12.75;;;7.75;;
37339;SDS011;23223;51.006;7.610;2022-07-22T04:13:48;11.90;;;8.63;;
37339;SDS011;23223;51.006;7.610;2022-07-22T04:16:14;14.23;;;9.48;;
37339;SDS011;23223;51.006;7.610;2022-07-22T04:18:39;10.10;;;8.25;;
37339;SDS011;23223;51.006;7.610;2022-07-22T04:21:05;7.43;;;5.97;;
37339;SDS011;23223;51.006;7.610;2022-07-22T04:23:31;10.27;;;7.95;;
37339;SDS011;23223;51.006;7.610;2022-07-22T04:25:56;7.50;;;6.25;;
37339;SDS011;23223;51.006;7.610;2022-07-22T04:28:22;11.82;;;8.75;;
37339;SDS011;23223;51.006;7.610;2022-07-22T04:30:47;10.32;;;6.93;;
37339;SDS011;23223;51.006;7.610;2022-07-22T04:33:13;11.85;;;8.50;;
37339;SDS011;23223;51.006;7.610;2022-07-22T04:35:38;14.45;;;9.75;;
37339;SDS011;23223;51.006;7.610;2022-07-22T04:38:04;13.95;;;9.65;;
37339;SDS011;23223;51.006;7.610;2022-07-22T04:40:29;14.07;;;9.07;;
37339;SDS011;23223;51.006;7.610;2022-07-22T04:42:55;9.75;;;7.90;;
37339;SDS011;23223;51.006;7.610;2022-07-22T04:45:20;15.85;;;11.48;;
37339;SDS011;23223;51.006;7.610;2022-07-22T04:47:46;13.82;;;10.60;;
37339;SDS011;23223;51.006;7.610;2022-07-22T04:50:11;10.18;;;8.35;;
37339;SDS011;23223;51.006;7.610;2022-07-22T04:52:37;16.70;;;11.73;;
37339;SDS011;23223;51.006;7.610;2022-07-22T04:55:03;17.42;;;10.95;;
37339;SDS011;23223;51.006;7.610;2022-07-22T04:57:29;16.67;;;11.18;;
37339;SDS011;23223;51.006;7.610;2022-07-22T04:59:54;18.67;;;11.52;;
37339;SDS011;23223;51.006;7.610;2022-07-22T05:02:20;20.17;;;12.02;;
37339;SDS011;23223;51.006;7.610;2022-07-22T05:04:45;20.17;;;12.43;;
37339;SDS011;23223;51.006;7.610;2022-07-22T05:07:11;17.77;;;11.77;;
37339;SDS011;23223;51.006;7.610;2022-07-22T05:09:37;17.65;;;11.73;;
37339;SDS011;23223;51.006;7.610;2022-07-22T05:12:02;15.45;;;9.82;;
37339;SDS011;23223;51.006;7.610;2022-07-22T05:14:29;17.90;;;11.85;;
37339;SDS011;23223;51.006;7.610;2022-07-22T05:16:54;18.35;;;10.77;;
37339;SDS011;23223;51.006;7.610;2022-07-22T05:19:20;16.17;;;9.95;;
37339;SDS011;23223;51.006;7.610;2022-07-22T05:21:46;16.67;;;11.18;;
37339;SDS011;23223;51.006;7.610;2022-07-22T05:24:11;15.10;;;9.50;;
37339;SDS011;23223;51.006;7.610;2022-07-22T05:26:37;13.35;;;7.68;;
37339;SDS011;23223;51.006;7.610;2022-07-22T05:29:03;16.02;;;9.55;;
37339;SDS011;23223;51.006;7.610;2022-07-22T05:31:29;16.23;;;9.63;;
37339;SDS011;23223;51.006;7.610;2022-07-22T05:33:54;11.48;;;8.43;;
37339;SDS011;23223;51.006;7.610;2022-07-22T05:36:20;15.05;;;9.05;;
37339;SDS011;23223;51.006;7.610;2022-07-22T05:38:46;13.20;;;9.00;;
37339;SDS011;23223;51.006;7.610;2022-07-22T05:41:11;12.20;;;7.72;;
37339;SDS011;23223;51.006;7.610;2022-07-22T05:43:37;12.95;;;7.05;;
37339;SDS011;23223;51.006;7.610;2022-07-22T05:46:03;12.73;;;8.18;;
37339;SDS011;23223;51.006;7.610;2022-07-22T05:48:28;8.25;;;6.30;;
37339;SDS011;23223;51.006;7.610;2022-07-22T05:50:54;10.95;;;6.75;;
37339;SDS011;23223;51.006;7.610;2022-07-22T05:53:20;10.63;;;7.53;;
37339;SDS011;23223;51.006;7.610;2022-07-22T05:55:45;14.00;;;7.20;;
37339;SDS011;23223;51.006;7.610;2022-07-22T05:58:11;8.05;;;4.68;;
37339;SDS011;23223;51.006;7.610;2022-07-22T06:00:36;4.85;;;3.60;;
37339;SDS011;23223;51.006;7.610;2022-07-22T06:03:04;5.13;;;3.88;;
37339;SDS011;23223;51.006;7.610;2022-07-22T06:05:30;9.40;;;4.55;;
37339;SDS011;23223;51.006;7.610;2022-07-22T06:07:56;9.90;;;5.45;;
37339;SDS011;23223;51.006;7.610;2022-07-22T06:10:22;6.22;;;4.50;;
37339;SDS011;23223;51.006;7.610;2022-07-22T06:12:47;5.70;;;4.32;;
37339;SDS011;23223;51.006;7.610;2022-07-22T06:15:13;11.45;;;3.30;;
37339;SDS011;23223;51.006;7.610;2022-07-22T06:17:38;8.35;;;3.30;;
37339;SDS011;23223;51.006;7.610;2022-07-22T06:20:04;5.55;;;3.10;;
37339;SDS011;23223;51.006;7.610;2022-07-22T06:22:30;5.18;;;2.67;;
37339;SDS011;23223;51.006;7.610;2022-07-22T06:24:55;3.08;;;2.50;;
37339;SDS011;23223;51.006;7.610;2022-07-22T06:27:21;4.53;;;3.03;;
37339;SDS011;23223;51.006;7.610;2022-07-22T06:29:47;3.80;;;2.47;;
37339;SDS011;23223;51.006;7.610;2022-07-22T06:32:12;4.05;;;3.03;;
37339;SDS011;23223;51.006;7.610;2022-07-22T06:34:38;3.95;;;2.80;;
37339;SDS011;23223;51.006;7.610;2022-07-22T06:37:03;3.95;;;2.55;;
37339;SDS011;23223;51.006;7.610;2022-07-22T06:39:29;5.13;;;2.83;;
37339;SDS011;23223;51.006;7.610;2022-07-22T06:41:54;4.68;;;3.00;;
37339;SDS011;23223;51.006;7.610;2022-07-22T06:44:20;4.82;;;3.17;;
37339;SDS011;23223;51.006;7.610;2022-07-22T06:46:45;6.25;;;2.85;;
37339;SDS011;23223;51.006;7.610;2022-07-22T06:49:11;4.55;;;2.75;;
37339;SDS011;23223;51.006;7.610;2022-07-22T06:51:37;3.28;;;2.80;;
37339;SDS011;23223;51.006;7.610;2022-07-22T06:54:02;5.72;;;2.90;;
37339;SDS011;23223;51.006;7.610;2022-07-22T06:56:28;3.97;;;3.13;;
37339;SDS011;23223;51.006;7.610;2022-07-22T06:58:53;4.05;;;3.47;;
37339;SDS011;23223;51.006;7.610;2022-07-22T07:01:19;4.82;;;3.10;;
37339;SDS011;23223;51.006;7.610;2022-07-22T07:03:45;3.08;;;2.50;;
37339;SDS011;23223;51.006;7.610;2022-07-22T07:06:11;4.80;;;3.30;;
37339;SDS011;23223;51.006;7.610;2022-07-22T07:08:39;5.15;;;2.75;;
37339;SDS011;23223;51.006;7.610;2022-07-22T07:11:05;5.88;;;2.72;;
37339;SDS011;23223;51.006;7.610;2022-07-22T07:13:31;4.05;;;3.00;;
37339;SDS011;23223;51.006;7.610;2022-07-22T07:15:58;6.22;;;3.58;;
37339;SDS011;23223;51.006;7.610;2022-07-22T07:18:23;3.47;;;2.47;;
37339;SDS011;23223;51.006;7.610;2022-07-22T07:20:49;3.33;;;3.00;;
37339;SDS011;23223;51.006;7.610;2022-07-22T07:23:15;6.10;;;3.05;;
37339;SDS011;23223;51.006;7.610;2022-07-22T07:25:40;4.00;;;2.47;;
37339;SDS011;23223;51.006;7.610;2022-07-22T07:28:06;3.47;;;2.75;;
37339;SDS011;23223;51.006;7.610;2022-07-22T07:30:32;5.53;;;2.58;;
37339;SDS011;23223;51.006;7.610;2022-07-22T07:32:57;3.95;;;3.22;;
37339;SDS011;23223;51.006;7.610;2022-07-22T07:35:25;3.45;;;2.97;;
37339;SDS011;23223;51.006;7.610;2022-07-22T07:37:51;3.33;;;3.03;;
37339;SDS011;23223;51.006;7.610;2022-07-22T07:40:17;5.45;;;3.13;;
37339;SDS011;23223;51.006;7.610;2022-07-22T07:42:43;4.50;;;3.35;;
37339;SDS011;23223;51.006;7.610;2022-07-22T07:45:09;4.28;;;3.38;;
37339;SDS011;23223;51.006;7.610;2022-07-22T07:47:35;6.50;;;3.10;;
37339;SDS011;23223;51.006;7.610;2022-07-22T07:50:01;7.25;;;3.08;;
37339;SDS011;23223;51.006;7.610;2022-07-22T07:52:27;8.65;;;2.08;;
37339;SDS011;23223;51.006;7.610;2022-07-22T07:54:53;1.88;;;1.67;;
37339;SDS011;23223;51.006;7.610;2022-07-22T07:57:20;3.08;;;2.47;;
37339;SDS011;23223;51.006;7.610;2022-07-22T07:59:46;4.65;;;2.72;;
37339;SDS011;23223;51.006;7.610;2022-07-22T08:02:12;3.28;;;2.53;;
37339;SDS011;23223;51.006;7.610;2022-07-22T08:04:38;2.15;;;1.95;;
37339;SDS011;23223;51.006;7.610;2022-07-22T08:07:06;3.25;;;2.80;;
37339;SDS011;23223;51.006;7.610;2022-07-22T08:09:32;2.25;;;2.05;;
37339;SDS011;23223;51.006;7.610;2022-07-22T08:12:00;4.03;;;2.67;;
37339;SDS011;23223;51.006;7.610;2022-07-22T08:14:26;2.55;;;1.98;;
37339;SDS011;23223;51.006;7.610;2022-07-22T08:16:51;4.82;;;2.33;;
37339;SDS011;23223;51.006;7.610;2022-07-22T08:19:17;4.65;;;2.40;;
37339;SDS011;23223;51.006;7.610;2022-07-22T08:21:43;6.05;;;2.40;;
37339;SDS011;23223;51.006;7.610;2022-07-22T08:24:09;5.43;;;2.80;;
37339;SDS011;23223;51.006;7.610;2022-07-22T08:26:35;3.15;;;2.72;;
37339;SDS011;23223;51.006;7.610;2022-07-22T08:29:01;3.90;;;3.60;;
37339;SDS011;23223;51.006;7.610;2022-07-22T08:31:28;5.03;;;4.05;;
37339;SDS011;23223;51.006;7.610;2022-07-22T08:33:53;8.30;;;4.13;;
37339;SDS011;23223;51.006;7.610;2022-07-22T08:36:19;3.88;;;3.55;;
37339;SDS011;23223;51.006;7.610;2022-07-22T08:38:44;4.53;;;3.80;;
37339;SDS011;23223;51.006;7.610;2022-07-22T08:41:10;3.38;;;2.95;;
37339;SDS011;23223;51.006;7.610;2022-07-22T08:43:38;3.15;;;2.85;;
37339;SDS011;23223;51.006;7.610;2022-07-22T08:46:06;2.45;;;2.25;;
37339;SDS011;23223;51.006;7.610;2022-07-22T08:48:32;4.45;;;2.53;;
37339;SDS011;23223;51.006;7.610;2022-07-22T08:50:57;4.57;;;3.97;;
37339;SDS011;23223;51.006;7.610;2022-07-22T08:53:23;3.00;;;2.78;;
37339;SDS011;23223;51.006;7.610;2022-07-22T08:55:49;3.00;;;2.63;;
37339;SDS011;23223;51.006;7.610;2022-07-22T08:58:15;3.10;;;2.80;;
37339;SDS011;23223;51.006;7.610;2022-07-22T09:00:42;2.63;;;2.42;;
37339;SDS011;23223;51.006;7.610;2022-07-22T09:03:20;3.53;;;3.22;;
37339;SDS011;23223;51.006;7.610;2022-07-22T09:05:48;2.60;;;2.40;;
37339;SDS011;23223;51.006;7.610;2022-07-22T09:08:15;4.10;;;3.17;;
37339;SDS011;23223;51.006;7.610;2022-07-22T09:10:41;3.92;;;3.15;;
37339;SDS011;23223;51.006;7.610;2022-07-22T09:13:07;4.25;;;3.70;;
37339;SDS011;23223;51.006;7.610;2022-07-22T09:15:35;3.72;;;3.42;;
37339;SDS011;23223;51.006;7.610;2022-07-22T09:18:10;4.10;;;3.70;;
37339;SDS011;23223;51.006;7.610;2022-07-22T09:20:36;5.70;;;4.13;;
37339;SDS011;23223;51.006;7.610;2022-07-22T09:23:07;5.00;;;4.47;;
37339;SDS011;23223;51.006;7.610;2022-07-22T09:25:35;8.88;;;4.82;;
37339;SDS011;23223;51.006;7.610;2022-07-22T09:30:30;4.88;;;4.35;;
37339;SDS011;23223;51.006;7.610;2022-07-22T09:32:56;5.65;;;5.05;;
37339;SDS011;23223;51.006;7.610;2022-07-22T09:35:22;5.22;;;3.83;;
37339;SDS011;23223;51.006;7.610;2022-07-22T09:40:31;6.55;;;3.67;;
37339;SDS011;23223;51.006;7.610;2022-07-22T09:43:00;4.85;;;4.05;;
37339;SDS011;23223;51.006;7.610;2022-07-22T09:45:37;4.65;;;4.15;;
37339;SDS011;23223;51.006;7.610;2022-07-22T09:48:13;4.82;;;4.32;;
37339;SDS011;23223;51.006;7.610;2022-07-22T09:50:39;3.95;;;3.60;;
37339;SDS011;23223;51.006;7.610;2022-07-22T09:53:05;7.78;;;4.40;;
37339;SDS011;23223;51.006;7.610;2022-07-22T09:55:30;6.78;;;4.00;;
37339;SDS011;23223;51.006;7.610;2022-07-22T09:57:58;4.72;;;3.65;;
37339;SDS011;23223;51.006;7.610;2022-07-22T10:00:25;5.85;;;4.10;;
37339;SDS011;23223;51.006;7.610;2022-07-22T10:02:52;4.78;;;3.80;;
37339;SDS011;23223;51.006;7.610;2022-07-22T10:05:23;3.83;;;3.22;;
37339;SDS011;23223;51.006;7.610;2022-07-22T10:07:53;3.92;;;3.50;;
37339;SDS011;23223;51.006;7.610;2022-07-22T10:10:20;4.53;;;4.13;;
37339;SDS011;23223;51.006;7.610;2022-07-22T10:12:48;4.78;;;3.45;;
37339;SDS011;23223;51.006;7.610;2022-07-22T10:15:15;5.53;;;3.70;;
37339;SDS011;23223;51.006;7.610;2022-07-22T10:17:42;4.07;;;3.40;;
37339;SDS011;23223;51.006;7.610;2022-07-22T10:20:11;4.55;;;3.90;;
37339;SDS011;23223;51.006;7.610;2022-07-22T10:25:10;3.55;;;3.25;;
37339;SDS011;23223;51.006;7.610;2022-07-22T10:27:43;4.70;;;3.80;;
37339;SDS011;23223;51.006;7.610;2022-07-22T10:30:22;3.97;;;3.58;;
37339;SDS011;23223;51.006;7.610;2022-07-22T10:36:00;3.83;;;3.38;;
37339;SDS011;23223;51.006;7.610;2022-07-22T10:38:28;4.90;;;3.95;;
37339;SDS011;23223;51.006;7.610;2022-07-22T10:40:56;5.20;;;3.88;;
37339;SDS011;23223;51.006;7.610;2022-07-22T10:43:27;4.45;;;3.47;;
37339;SDS011;23223;51.006;7.610;2022-07-22T10:45:57;5.15;;;4.20;;
37339;SDS011;23223;51.006;7.610;2022-07-22T10:56:26;4.20;;;3.83;;
37339;SDS011;23223;51.006;7.610;2022-07-22T11:01:33;7.38;;;4.15;;
37339;SDS011;23223;51.006;7.610;2022-07-22T11:04:07;5.47;;;3.28;;
37339;SDS011;23223;51.006;7.610;2022-07-22T11:06:53;5.22;;;3.33;;
37339;SDS011;23223;51.006;7.610;2022-07-22T11:09:20;3.65;;;3.13;;
37339;SDS011;23223;51.006;7.610;2022-07-22T11:11:48;5.57;;;3.50;;
37339;SDS011;23223;51.006;7.610;2022-07-22T11:16:44;5.22;;;3.58;;
37339;SDS011;23223;51.006;7.610;2022-07-22T11:19:11;4.68;;;3.60;;
37339;SDS011;23223;51.006;7.610;2022-07-22T11:21:37;3.70;;;3.10;;
37339;SDS011;23223;51.006;7.610;2022-07-22T11:24:04;4.10;;;2.88;;
37339;SDS011;23223;51.006;7.610;2022-07-22T11:26:33;3.90;;;3.60;;
37339;SDS011;23223;51.006;7.610;2022-07-22T11:29:30;3.47;;;3.17;;
37339;SDS011;23223;51.006;7.610;2022-07-22T11:31:59;5.38;;;2.55;;
37339;SDS011;23223;51.006;7.610;2022-07-22T11:34:25;4.18;;;3.58;;
37339;SDS011;23223;51.006;7.610;2022-07-22T11:36:52;4.88;;;4.00;;
37339;SDS011;23223;51.006;7.610;2022-07-22T11:39:19;7.43;;;4.07;;
37339;SDS011;23223;51.006;7.610;2022-07-22T11:41:46;4.60;;;3.88;;
37339;SDS011;23223;51.006;7.610;2022-07-22T11:44:16;3.13;;;2.63;;
37339;SDS011;23223;51.006;7.610;2022-07-22T11:46:47;4.00;;;3.10;;
37339;SDS011;23223;51.006;7.610;2022-07-22T11:49:14;5.25;;;3.97;;
37339;SDS011;23223;51.006;7.610;2022-07-22T11:51:41;4.03;;;3.50;;
37339;SDS011;23223;51.006;7.610;2022-07-22T11:54:07;4.50;;;3.42;;
37339;SDS011;23223;51.006;7.610;2022-07-22T11:56:33;4.10;;;3.70;;
37339;SDS011;23223;51.006;7.610;2022-07-22T11:59:00;4.00;;;3.60;;
37339;SDS011;23223;51.006;7.610;2022-07-22T12:01:29;3.88;;;3.10;;
37339;SDS011;23223;51.006;7.610;2022-07-22T12:04:04;3.30;;;3.00;;
37339;SDS011;23223;51.006;7.610;2022-07-22T12:06:32;5.95;;;3.00;;
37339;SDS011;23223;51.006;7.610;2022-07-22T12:09:12;4.93;;;3.30;;
37339;SDS011;23223;51.006;7.610;2022-07-22T12:11:39;4.63;;;3.55;;
37339;SDS011;23223;51.006;7.610;2022-07-22T12:14:11;3.45;;;3.03;;
37339;SDS011;23223;51.006;7.610;2022-07-22T12:16:39;3.97;;;2.83;;
37339;SDS011;23223;51.006;7.610;2022-07-22T12:19:07;4.05;;;3.40;;
37339;SDS011;23223;51.006;7.610;2022-07-22T12:21:56;3.90;;;3.42;;
37339;SDS011;23223;51.006;7.610;2022-07-22T12:26:59;3.38;;;2.88;;
37339;SDS011;23223;51.006;7.610;2022-07-22T12:29:50;3.42;;;3.13;;
37339;SDS011;23223;51.006;7.610;2022-07-22T12:32:16;3.08;;;2.78;;
37339;SDS011;23223;51.006;7.610;2022-07-22T12:34:55;5.75;;;3.35;;
37339;SDS011;23223;51.006;7.610;2022-07-22T12:42:25;4.93;;;3.30;;
37339;SDS011;23223;51.006;7.610;2022-07-22T12:45:00;4.68;;;3.33;;
37339;SDS011;23223;51.006;7.610;2022-07-22T12:50:21;5.10;;;3.47;;
37339;SDS011;23223;51.006;7.610;2022-07-22T12:52:48;5.03;;;3.33;;
37339;SDS011;23223;51.006;7.610;2022-07-22T12:55:14;4.22;;;3.20;;
37339;SDS011;23223;51.006;7.610;2022-07-22T12:57:40;3.63;;;3.10;;
37339;SDS011;23223;51.006;7.610;2022-07-22T13:00:06;4.00;;;3.60;;
37339;SDS011;23223;51.006;7.610;2022-07-22T13:02:33;5.43;;;3.67;;
37339;SDS011;23223;51.006;7.610;2022-07-22T13:04:59;5.28;;;3.65;;
37339;SDS011;23223;51.006;7.610;2022-07-22T13:07:24;4.43;;;3.08;;
37339;SDS011;23223;51.006;7.610;2022-07-22T13:09:50;3.72;;;3.38;;
37339;SDS011;23223;51.006;7.610;2022-07-22T13:12:16;7.38;;;4.55;;
37339;SDS011;23223;51.006;7.610;2022-07-22T13:14:41;6.50;;;4.30;;
37339;SDS011;23223;51.006;7.610;2022-07-22T13:17:07;7.28;;;4.72;;
37339;SDS011;23223;51.006;7.610;2022-07-22T13:19:32;5.70;;;4.22;;
37339;SDS011;23223;51.006;7.610;2022-07-22T13:21:58;4.63;;;4.22;;
37339;SDS011;23223;51.006;7.610;2022-07-22T13:24:23;4.43;;;4.03;;
37339;SDS011;23223;51.006;7.610;2022-07-22T13:26:49;6.90;;;4.65;;
37339;SDS011;23223;51.006;7.610;2022-07-22T13:29:14;5.45;;;4.53;;
37339;SDS011;23223;51.006;7.610;2022-07-22T13:31:41;5.18;;;4.22;;
37339;SDS011;23223;51.006;7.610;2022-07-22T13:34:07;5.65;;;4.93;;
37339;SDS011;23223;51.006;7.610;2022-07-22T13:36:33;5.45;;;4.78;;
37339;SDS011;23223;51.006;7.610;2022-07-22T13:38:59;5.05;;;4.22;;
37339;SDS011;23223;51.006;7.610;2022-07-22T13:41:25;7.78;;;4.80;;
37339;SDS011;23223;51.006;7.610;2022-07-22T13:43:51;5.50;;;5.00;;
37339;SDS011;23223;51.006;7.610;2022-07-22T13:46:17;5.88;;;4.63;;
37339;SDS011;23223;51.006;7.610;2022-07-22T13:48:43;5.75;;;5.07;;
37339;SDS011;23223;51.006;7.610;2022-07-22T13:51:09;7.00;;;5.60;;
37339;SDS011;23223;51.006;7.610;2022-07-22T13:53:35;7.10;;;5.07;;
37339;SDS011;23223;51.006;7.610;2022-07-22T13:56:01;6.60;;;5.90;;
37339;SDS011;23223;51.006;7.610;2022-07-22T13:58:27;6.93;;;5.10;;
37339;SDS011;23223;51.006;7.610;2022-07-22T14:00:53;6.50;;;4.97;;
37339;SDS011;23223;51.006;7.610;2022-07-22T14:03:18;6.63;;;5.22;;
37339;SDS011;23223;51.006;7.610;2022-07-22T14:05:44;5.38;;;4.88;;
37339;SDS011;23223;51.006;7.610;2022-07-22T14:08:10;8.18;;;4.30;;
37339;SDS011;23223;51.006;7.610;2022-07-22T14:10:36;6.93;;;5.18;;
37339;SDS011;23223;51.006;7.610;2022-07-22T14:13:02;5.45;;;4.90;;
37339;SDS011;23223;51.006;7.610;2022-07-22T14:15:27;8.50;;;4.78;;
37339;SDS011;23223;51.006;7.610;2022-07-22T14:17:53;5.25;;;4.72;;
37339;SDS011;23223;51.006;7.610;2022-07-22T14:20:18;5.93;;;4.53;;
37339;SDS011;23223;51.006;7.610;2022-07-22T14:22:44;4.80;;;4.03;;
37339;SDS011;23223;51.006;7.610;2022-07-22T14:25:10;5.05;;;4.45;;
37339;SDS011;23223;51.006;7.610;2022-07-22T14:27:35;5.72;;;4.97;;
37339;SDS011;23223;51.006;7.610;2022-07-22T14:30:01;8.68;;;5.00;;
37339;SDS011;23223;51.006;7.610;2022-07-22T14:32:27;5.47;;;4.95;;
37339;SDS011;23223;51.006;7.610;2022-07-22T14:34:53;5.70;;;4.03;;
37339;SDS011;23223;51.006;7.610;2022-07-22T14:37:18;5.05;;;4.50;;
37339;SDS011;23223;51.006;7.610;2022-07-22T14:39:44;6.80;;;5.05;;
37339;SDS011;23223;51.006;7.610;2022-07-22T14:42:09;7.80;;;5.57;;
37339;SDS011;23223;51.006;7.610;2022-07-22T14:44:35;8.48;;;5.25;;
37339;SDS011;23223;51.006;7.610;2022-07-22T14:47:00;5.88;;;4.90;;
37339;SDS011;23223;51.006;7.610;2022-07-22T14:49:27;7.90;;;5.65;;
37339;SDS011;23223;51.006;7.610;2022-07-22T14:51:52;5.78;;;4.95;;
37339;SDS011;23223;51.006;7.610;2022-07-22T14:54:18;7.07;;;5.53;;
37339;SDS011;23223;51.006;7.610;2022-07-22T14:56:44;4.70;;;4.30;;
37339;SDS011;23223;51.006;7.610;2022-07-22T14:59:09;7.53;;;5.25;;
37339;SDS011;23223;51.006;7.610;2022-07-22T15:01:35;7.22;;;5.22;;
37339;SDS011;23223;51.006;7.610;2022-07-22T15:04:01;7.00;;;4.70;;
37339;SDS011;23223;51.006;7.610;2022-07-22T15:06:27;8.80;;;5.50;;
37339;SDS011;23223;51.006;7.610;2022-07-22T15:08:52;12.23;;;5.32;;
37339;SDS011;23223;51.006;7.610;2022-07-22T15:11:18;5.80;;;5.30;;
37339;SDS011;23223;51.006;7.610;2022-07-22T15:13:43;5.97;;;5.32;;
37339;SDS011;23223;51.006;7.610;2022-07-22T15:16:09;7.60;;;5.15;;